This is the latest recevied weather packets stored in our database for station/object DB0OHA-10. If no packets are shown the sender has not sent any weather packets the latest 10 day(s).
| Time | Temp. | Humidity | Pressure | Rain* | Wind** | Luminosity | Snow |
|---|---|---|---|---|---|---|---|
| 1777143626 | 11.67° C | 58% | 1016.2 hPa | 0 mm | - | 0 W/m² | - |
| 1777142726 | 12.22° C | 56% | 1016.2 hPa | 0 mm | - | 0 W/m² | - |
| 1777141826 | 12.78° C | 54% | 1016.1 hPa | 0 mm | - | 5 W/m² | - |
| 1777140927 | 12.78° C | 53% | 1015.9 hPa | 0 mm | - | 14 W/m² | - |
| 1777140026 | 13.33° C | 51% | 1015.7 hPa | 0 mm | - | 21 W/m² | - |
| 1777139126 | 13.89° C | 50% | 1015.6 hPa | 0 mm | - | 30 W/m² | - |
| 1777138226 | 14.44° C | 48% | 1015.7 hPa | 0 mm | - | 72 W/m² | - |
| 1777137358 | 14.44° C | 47% | 1015.6 hPa | 0 mm | - | 111 W/m² | - |
| 1777137326 | 14.44° C | 47% | 1015.6 hPa | 0 mm | - | 111 W/m² | - |
| 1777136426 | 15° C | 46% | 1015.5 hPa | 0 mm | - | 153 W/m² | - |
| 1777135526 | 15° C | 46% | 1015.4 hPa | 0 mm | - | 200 W/m² | - |
| 1777134627 | 15.56° C | 44% | 1015.4 hPa | 0 mm | - | 246 W/m² | - |
| 1777133727 | 15.56° C | 41% | 1015.3 hPa | 0 mm | - | 279 W/m² | - |
| 1777132827 | 16.11° C | 41% | 1015.5 hPa | 0 mm | - | 315 W/m² | - |
| 1777131927 | 16.11° C | 39% | 1015.4 hPa | 0 mm | - | 359 W/m² | - |
| 1777131027 | 16.11° C | 39% | 1015.5 hPa | 0 mm | - | 397 W/m² | - |
| 1777130127 | 16.67° C | 38% | 1015.4 hPa | 0 mm | - | 431 W/m² | - |
| 1777129227 | 16.11° C | 40% | 1015.5 hPa | 0 mm | - | 469 W/m² | - |
| 1777128327 | 16.67° C | 39% | 1015.5 hPa | 0 mm | - | 501 W/m² | - |
| 1777127427 | 16.67° C | 42% | 1015.6 hPa | 0 mm | - | 534 W/m² | - |
| 1777126527 | 16.67° C | 42% | 1015.7 hPa | 0 mm | - | 571 W/m² | - |
| 1777125627 | 16.11° C | 47% | 1015.8 hPa | 0 mm | - | 598 W/m² | - |
| 1777124727 | 16.67° C | 47% | 1015.8 hPa | 0 mm | - | 622 W/m² | - |
| 1777123827 | 15.56° C | 52% | 1015.8 hPa | 0 mm | - | 645 W/m² | - |
| 1777122927 | 16.11° C | 50% | 1016.1 hPa | 0 mm | - | 661 W/m² | - |
* Rain latest hour (hover to see other rain measurements)
** Current wind speed in m/s (hover to see current wind gust speed)